Time;durP1;ratioP1;P1;durP2;ratioP2;P2;SDS_P1;SDS_P2;PMS_P1;PMS_P2;Temp;Humidity;BMP_temperature;BMP_pressure;BME280_temperature;BME280_humidity;BME280_pressure;Samples;Min_cycle;Max_cycle;Signal;HPM_P1;HPM_P2
2021/11/15 00:00:22;;;;;;;;;;;6.60;99.90;;;;;;5042184;28;20434;-83
2021/11/15 00:02:48;;;;;;;;;;;6.60;99.90;;;;;;5041622;28;19925;-82
2021/11/15 00:05:15;;;;;;;;;;;7.00;99.90;;;;;;5045216;28;19925;-82
2021/11/15 00:07:41;;;;;;;;;;;6.60;99.90;;;;;;5042739;28;19925;-82
2021/11/15 00:10:15;;;;;;;;;;;6.50;99.90;;;;;;5041972;28;19933;-82
2021/11/15 00:12:42;;;;;;;;;;;6.70;99.90;;;;;;5044688;28;20002;-81
2021/11/15 00:15:09;;;;;;;;;;;6.60;99.90;;;;;;5044506;28;19932;-82
2021/11/15 00:17:35;;;;;;;;;;;6.60;99.90;;;;;;5041223;28;19975;-82
2021/11/15 00:20:02;;;;;;;;;;;6.60;99.90;;;;;;5040303;28;19965;-82
2021/11/15 00:22:28;;;;;;;;;;;6.60;99.90;;;;;;5041230;28;20295;-82
2021/11/15 00:24:54;;;;;;;;;;;6.60;99.90;;;;;;5048897;28;19913;-82
2021/11/15 00:27:22;;;;;;;;;;;6.60;99.90;;;;;;5056088;28;19925;-81
2021/11/15 00:29:49;;;;;;;;;;;6.80;99.90;;;;;;5055648;28;19925;-82
2021/11/15 00:32:15;;;;;;;;;;;6.60;99.90;;;;;;5056110;28;19935;-81
2021/11/15 00:34:42;;;;;;;;;;;6.60;99.90;;;;;;5055870;28;19913;-81
2021/11/15 00:37:09;;;;;;;;;;;6.60;99.90;;;;;;5055849;28;19933;-82
2021/11/15 00:39:36;;;;;;;;;;;6.60;99.90;;;;;;5047081;28;19963;-83
2021/11/15 00:42:02;;;;;;;;;;;6.50;99.90;;;;;;5039518;28;20219;-82
2021/11/15 00:44:30;;;;;;;;;;;6.50;99.90;;;;;;5040167;28;20343;-83
2021/11/15 00:46:57;;;;;;;;;;;6.40;99.90;;;;;;5040337;28;20362;-82
2021/11/15 00:49:23;;;;;;;;;;;6.60;99.90;;;;;;5040420;28;19929;-83
2021/11/15 00:51:50;;;;;;;;;;;6.60;99.90;;;;;;5042315;28;19925;-83
2021/11/15 00:54:16;;;;;;;;;;;6.50;99.90;;;;;;5040895;28;19925;-83
2021/11/15 00:56:43;;;;;;;;;;;6.50;99.90;;;;;;5040726;28;19925;-83
2021/11/15 00:59:09;;;;;;;;;;;6.50;99.90;;;;;;5040343;28;19925;-83
2021/11/15 01:01:37;;;;;;;;;;;6.50;99.90;;;;;;5041006;28;19925;-83
2021/11/15 01:04:03;;;;;;;;;;;6.50;99.90;;;;;;5056961;28;19913;-81
2021/11/15 01:06:30;;;;;;;;;;;6.50;99.90;;;;;;5045182;28;19925;-83
2021/11/15 01:08:56;;;;;;;;;;;6.50;99.90;;;;;;5040549;28;19965;-82
2021/11/15 01:11:23;;;;;;;;;;;6.50;99.90;;;;;;5039690;28;19925;-83
2021/11/15 01:13:49;;;;;;;;;;;6.50;99.90;;;;;;5039586;28;19932;-83
2021/11/15 01:16:16;;;;;;;;;;;6.50;99.90;;;;;;5041963;28;19956;-82
2021/11/15 01:18:44;;;;;;;;;;;6.50;99.90;;;;;;5040422;28;19960;-82
2021/11/15 01:21:11;;;;;;;;;;;6.50;99.90;;;;;;5041644;28;19988;-83
2021/11/15 01:23:38;;;;;;;;;;;6.50;99.90;;;;;;5039253;28;19929;-82
2021/11/15 01:26:05;;;;;;;;;;;6.50;99.90;;;;;;5039686;28;20277;-81
2021/11/15 01:28:31;;;;;;;;;;;6.50;99.90;;;;;;5043937;28;19925;-82
2021/11/15 01:30:58;;;;;;;;;;;6.50;99.90;;;;;;5050236;28;19929;-82
2021/11/15 01:33:24;;;;;;;;;;;6.50;99.90;;;;;;5049219;28;19967;-82
2021/11/15 01:35:52;;;;;;;;;;;6.50;99.90;;;;;;5040582;28;19932;-82
2021/11/15 01:38:19;;;;;;;;;;;6.50;99.90;;;;;;5038129;28;19967;-83
2021/11/15 01:40:45;;;;;;;;;;;6.50;99.90;;;;;;5037844;28;19925;-82
2021/11/15 01:43:12;;;;;;;;;;;6.50;99.90;;;;;;5038011;28;19979;-83
2021/11/15 01:45:39;;;;;;;;;;;6.50;99.90;;;;;;5044045;28;19929;-83
2021/11/15 01:48:06;;;;;;;;;;;6.40;99.90;;;;;;5040494;28;19925;-82
2021/11/15 01:50:34;;;;;;;;;;;6.50;99.90;;;;;;5040982;28;19925;-82
2021/11/15 01:53:02;;;;;;;;;;;6.50;99.90;;;;;;5040509;28;19932;-82
2021/11/15 01:55:30;;;;;;;;;;;6.50;99.90;;;;;;5039126;28;19925;-82
2021/11/15 01:57:57;;;;;;;;;;;6.50;99.90;;;;;;5040849;28;20315;-83
2021/11/15 02:00:27;;;;;;;;;;;6.60;99.90;;;;;;5038722;28;19926;-82
2021/11/15 02:02:53;;;;;;;;;;;6.50;99.90;;;;;;5021351;28;19931;-83
2021/11/15 02:05:20;;;;;;;;;;;6.50;99.90;;;;;;5038823;28;19932;-83
2021/11/15 02:07:46;;;;;;;;;;;6.50;99.90;;;;;;5038985;28;19929;-82
2021/11/15 02:10:14;;;;;;;;;;;6.50;99.90;;;;;;5038719;28;19967;-82
2021/11/15 02:12:42;;;;;;;;;;;6.50;99.90;;;;;;5039423;28;19926;-83
2021/11/15 02:15:11;;;;;;;;;;;6.50;99.90;;;;;;5043125;28;19925;-83
2021/11/15 02:17:37;;;;;;;;;;;6.50;99.90;;;;;;5042730;28;20285;-84
2021/11/15 02:20:05;;;;;;;;;;;6.50;99.90;;;;;;5047475;28;19925;-82
2021/11/15 02:22:33;;;;;;;;;;;6.50;99.90;;;;;;5048437;28;20311;-83
2021/11/15 02:25:01;;;;;;;;;;;6.60;99.90;;;;;;5047731;28;19932;-83
2021/11/15 02:27:29;;;;;;;;;;;6.50;99.90;;;;;;5047982;28;20303;-82
2021/11/15 02:29:55;;;;;;;;;;;6.50;99.90;;;;;;5051345;28;19951;-82
2021/11/15 02:32:22;;;;;;;;;;;6.50;99.90;;;;;;5057669;28;19925;-82
2021/11/15 02:34:48;;;;;;;;;;;6.50;99.90;;;;;;5053030;28;19925;-82
2021/11/15 02:37:15;;;;;;;;;;;6.50;99.90;;;;;;5047737;28;19983;-82
2021/11/15 02:39:43;;;;;;;;;;;6.40;99.90;;;;;;5052331;28;19948;-83
2021/11/15 02:42:11;;;;;;;;;;;6.50;99.90;;;;;;5052805;28;19999;-82
2021/11/15 02:44:37;;;;;;;;;;;6.90;99.90;;;;;;5050792;28;19925;-81
2021/11/15 02:47:04;;;;;;;;;;;6.40;99.90;;;;;;5048924;28;19925;-82
2021/11/15 02:49:31;;;;;;;;;;;6.40;99.90;;;;;;5047366;28;20003;-81
2021/11/15 02:51:57;;;;;;;;;;;6.40;99.90;;;;;;5044965;28;19929;-83
2021/11/15 02:54:25;;;;;;;;;;;6.40;99.90;;;;;;5045540;28;19932;-82
2021/11/15 02:56:53;;;;;;;;;;;6.40;99.90;;;;;;5044085;28;19998;-83
2021/11/15 02:59:20;;;;;;;;;;;6.50;99.90;;;;;;5043223;28;19952;-82
2021/11/15 03:01:47;;;;;;;;;;;6.50;99.90;;;;;;5042957;28;19944;-82
2021/11/15 03:04:13;;;;;;;;;;;6.50;99.90;;;;;;5043037;28;20376;-82
2021/11/15 03:06:39;;;;;;;;;;;6.50;99.90;;;;;;5044000;28;20288;-82
2021/11/15 03:09:06;;;;;;;;;;;6.50;99.90;;;;;;5043527;28;19925;-82
2021/11/15 03:11:33;;;;;;;;;;;6.50;99.90;;;;;;5041851;28;20399;-82
2021/11/15 03:14:01;;;;;;;;;;;6.50;99.90;;;;;;5044380;28;19960;-83
2021/11/15 03:16:28;;;;;;;;;;;6.60;99.90;;;;;;5053026;28;19913;-81
2021/11/15 03:18:54;;;;;;;;;;;6.50;99.90;;;;;;5051209;28;19926;-82
2021/11/15 03:21:22;;;;;;;;;;;6.60;99.90;;;;;;5042255;28;19925;-83
2021/11/15 03:23:50;;;;;;;;;;;6.60;99.90;;;;;;5042634;28;19929;-82
2021/11/15 03:26:17;;;;;;;;;;;6.60;99.90;;;;;;5054418;28;19936;-82
2021/11/15 03:28:45;;;;;;;;;;;6.50;99.90;;;;;;5055940;28;19937;-81
2021/11/15 03:31:19;;;;;;;;;;;6.60;99.90;;;;;;5055466;28;19937;-82
2021/11/15 03:33:48;;;;;;;;;;;6.50;99.90;;;;;;5057023;28;19951;-82
2021/11/15 03:36:16;;;;;;;;;;;6.50;99.90;;;;;;5054258;28;19932;-82
2021/11/15 03:38:43;;;;;;;;;;;6.50;99.90;;;;;;5053853;28;19924;-81
2021/11/15 03:41:09;;;;;;;;;;;6.50;99.90;;;;;;5056112;28;19913;-81
2021/11/15 03:43:37;;;;;;;;;;;6.50;99.90;;;;;;5055851;28;19913;-81
2021/11/15 03:46:04;;;;;;;;;;;6.50;99.90;;;;;;5056590;28;19925;-81
2021/11/15 03:48:31;;;;;;;;;;;6.30;99.90;;;;;;5057424;28;19913;-81
2021/11/15 03:50:58;;;;;;;;;;;6.50;99.90;;;;;;5057479;28;19928;-81
2021/11/15 03:53:26;;;;;;;;;;;6.50;99.90;;;;;;5045131;28;19971;-83
2021/11/15 03:55:53;;;;;;;;;;;6.40;99.90;;;;;;5043169;28;19925;-82
2021/11/15 03:58:22;;;;;;;;;;;6.40;99.90;;;;;;5042586;28;20281;-82
2021/11/15 04:00:49;;;;;;;;;;;6.40;99.90;;;;;;5041573;28;20064;-83
2021/11/15 04:03:20;;;;;;;;;;;6.40;99.90;;;;;;5041202;28;20303;-82
2021/11/15 04:05:53;;;;;;;;;;;6.40;99.90;;;;;;5042195;28;19929;-82
2021/11/15 04:08:23;;;;;;;;;;;6.30;99.90;;;;;;5044071;28;19925;-83
2021/11/15 04:10:49;;;;;;;;;;;6.40;99.90;;;;;;5040857;28;19925;-82
2021/11/15 04:13:19;;;;;;;;;;;6.50;99.90;;;;;;5040500;28;19982;-82
2021/11/15 04:15:46;;;;;;;;;;;6.20;99.90;;;;;;5040761;28;20376;-82
2021/11/15 04:18:14;;;;;;;;;;;6.30;99.90;;;;;;5040360;28;19926;-82
2021/11/15 04:20:41;;;;;;;;;;;6.30;99.90;;;;;;5041014;28;19925;-82
2021/11/15 04:23:10;;;;;;;;;;;6.30;99.90;;;;;;5040455;28;20397;-83
2021/11/15 04:25:36;;;;;;;;;;;6.30;99.90;;;;;;5040598;28;19925;-84
2021/11/15 04:28:05;;;;;;;;;;;6.40;99.90;;;;;;5039998;28;20380;-81
2021/11/15 04:30:31;;;;;;;;;;;6.40;99.90;;;;;;5040847;28;19999;-82
2021/11/15 04:32:59;;;;;;;;;;;6.40;99.90;;;;;;5041146;28;20008;-82
2021/11/15 04:35:25;;;;;;;;;;;6.40;99.90;;;;;;5040603;28;20371;-82
2021/11/15 04:37:52;;;;;;;;;;;6.10;99.90;;;;;;5040152;28;19925;-82
2021/11/15 04:40:20;;;;;;;;;;;6.30;99.90;;;;;;5039819;28;19968;-83
2021/11/15 04:42:46;;;;;;;;;;;6.30;99.90;;;;;;5041070;28;19925;-82
2021/11/15 04:45:13;;;;;;;;;;;6.30;99.90;;;;;;5041369;28;19976;-82
2021/11/15 04:47:40;;;;;;;;;;;6.40;99.90;;;;;;5047627;28;20300;-82
2021/11/15 04:50:07;;;;;;;;;;;6.30;99.90;;;;;;5039923;28;20316;-82
2021/11/15 04:52:34;;;;;;;;;;;6.30;99.90;;;;;;5039702;28;20335;-83
2021/11/15 04:55:01;;;;;;;;;;;6.30;99.90;;;;;;5041200;28;19925;-82
2021/11/15 04:57:29;;;;;;;;;;;6.30;99.90;;;;;;5043231;28;19975;-81
2021/11/15 04:59:59;;;;;;;;;;;6.30;99.90;;;;;;5041072;28;19961;-82
2021/11/15 05:02:27;;;;;;;;;;;6.30;99.90;;;;;;5040136;28;19924;-82
2021/11/15 05:04:54;;;;;;;;;;;6.30;99.90;;;;;;5039374;28;20311;-82
2021/11/15 05:07:21;;;;;;;;;;;6.30;99.90;;;;;;5039026;28;20316;-82
2021/11/15 05:09:47;;;;;;;;;;;6.40;99.90;;;;;;5056344;28;19925;-82
2021/11/15 05:12:14;;;;;;;;;;;6.30;99.90;;;;;;5041419;28;19964;-82
2021/11/15 05:14:42;;;;;;;;;;;6.30;99.90;;;;;;5040938;28;19964;-83
2021/11/15 05:17:08;;;;;;;;;;;6.30;99.90;;;;;;5049651;28;19925;-82
2021/11/15 05:19:35;;;;;;;;;;;6.30;99.90;;;;;;5055751;28;19913;-82
2021/11/15 05:22:01;;;;;;;;;;;6.30;99.90;;;;;;5071475;22;19936;-84
2021/11/15 05:24:28;;;;;;;;;;;6.20;99.90;;;;;;5046860;28;19925;-85
2021/11/15 05:26:54;;;;;;;;;;;6.20;99.90;;;;;;5047034;28;19983;-85
2021/11/15 05:29:23;;;;;;;;;;;6.20;99.90;;;;;;5042940;28;19925;-84
2021/11/15 05:31:52;;;;;;;;;;;6.20;99.90;;;;;;5042965;28;20000;-84
2021/11/15 05:34:18;;;;;;;;;;;6.20;99.90;;;;;;5058079;28;19952;-84
2021/11/15 05:36:44;;;;;;;;;;;6.20;99.90;;;;;;5056921;28;19925;-83
2021/11/15 05:39:11;;;;;;;;;;;6.30;99.90;;;;;;5053293;28;19956;-83
2021/11/15 05:41:38;;;;;;;;;;;6.30;99.90;;;;;;5052430;28;19932;-83
2021/11/15 05:44:04;;;;;;;;;;;6.30;99.90;;;;;;5043643;28;19972;-83
2021/11/15 05:46:32;;;;;;;;;;;5.20;99.90;;;;;;5039764;28;19968;-83
2021/11/15 05:49:00;;;;;;;;;;;6.30;99.90;;;;;;5040809;28;19929;-83
2021/11/15 05:51:26;;;;;;;;;;;6.30;99.90;;;;;;5044037;28;19925;-84
2021/11/15 05:53:53;;;;;;;;;;;6.20;99.90;;;;;;5048293;28;20295;-84
2021/11/15 05:56:19;;;;;;;;;;;6.20;99.90;;;;;;5050014;28;19925;-83
2021/11/15 05:58:46;;;;;;;;;;;6.30;99.90;;;;;;5050645;28;19929;-83
2021/11/15 06:01:12;;;;;;;;;;;6.40;99.90;;;;;;5051017;28;19929;-84
2021/11/15 06:03:39;;;;;;;;;;;6.30;99.90;;;;;;5051984;28;19925;-84
2021/11/15 06:06:07;;;;;;;;;;;6.30;99.90;;;;;;5054624;28;19953;-84
2021/11/15 06:08:33;;;;;;;;;;;6.30;99.90;;;;;;5054662;28;19926;-82
2021/11/15 06:11:00;;;;;;;;;;;6.30;99.90;;;;;;5051468;28;19925;-83
2021/11/15 06:13:26;;;;;;;;;;;6.30;99.90;;;;;;5050258;28;19936;-83
2021/11/15 06:15:53;;;;;;;;;;;6.30;99.90;;;;;;5050461;28;19925;-84
2021/11/15 06:18:20;;;;;;;;;;;6.30;99.90;;;;;;5050011;28;19925;-84
2021/11/15 06:20:46;;;;;;;;;;;6.30;99.90;;;;;;5049930;28;19952;-84
2021/11/15 06:23:14;;;;;;;;;;;6.30;99.90;;;;;;5050539;28;19925;-84
2021/11/15 06:25:44;;;;;;;;;;;6.30;99.90;;;;;;5052604;28;19925;-83
2021/11/15 06:28:11;;;;;;;;;;;6.40;99.90;;;;;;5049686;28;19925;-84
2021/11/15 06:30:38;;;;;;;;;;;6.30;99.90;;;;;;5052581;28;19974;-83
2021/11/15 06:33:04;;;;;;;;;;;6.30;99.90;;;;;;5054407;28;19975;-83
2021/11/15 06:35:31;;;;;;;;;;;6.30;99.90;;;;;;5050940;28;19925;-85
2021/11/15 06:37:58;;;;;;;;;;;6.30;99.90;;;;;;5050278;28;19925;-83
2021/11/15 06:40:26;;;;;;;;;;;6.30;99.90;;;;;;5049478;28;19929;-83
2021/11/15 06:42:53;;;;;;;;;;;6.30;99.90;;;;;;5048906;28;19979;-84
2021/11/15 06:45:19;;;;;;;;;;;6.40;99.90;;;;;;5049453;28;20366;-84
2021/11/15 06:47:47;;;;;;;;;;;6.40;99.90;;;;;;5050317;28;20300;-83
2021/11/15 06:50:16;;;;;;;;;;;6.30;99.90;;;;;;5058864;28;19925;-84
2021/11/15 06:52:43;;;;;;;;;;;6.30;99.90;;;;;;5058563;28;19948;-84
2021/11/15 06:55:11;;;;;;;;;;;6.40;99.90;;;;;;5056878;28;19925;-84
2021/11/15 06:57:40;;;;;;;;;;;6.40;99.90;;;;;;5058484;28;19913;-83
2021/11/15 07:00:08;;;;;;;;;;;6.40;99.90;;;;;;5060257;28;19909;-82
2021/11/15 07:02:34;;;;;;;;;;;6.40;99.90;;;;;;5059327;28;19921;-83
2021/11/15 07:05:01;;;;;;;;;;;6.40;99.90;;;;;;5057679;28;19952;-84
2021/11/15 07:07:27;;;;;;;;;;;6.40;99.90;;;;;;5054998;28;19948;-83
2021/11/15 07:09:54;;;;;;;;;;;6.40;99.90;;;;;;5058066;28;19909;-82
2021/11/15 07:12:20;;;;;;;;;;;6.40;99.90;;;;;;5058252;28;19932;-83
2021/11/15 07:14:48;;;;;;;;;;;6.40;99.90;;;;;;5058955;28;19951;-83
2021/11/15 07:17:15;;;;;;;;;;;6.40;99.90;;;;;;5059001;28;19925;-83
2021/11/15 07:19:41;;;;;;;;;;;6.40;99.90;;;;;;5058080;28;19925;-84
2021/11/15 07:22:08;;;;;;;;;;;6.40;99.90;;;;;;5052406;28;19929;-83
2021/11/15 07:24:34;;;;;;;;;;;6.40;99.90;;;;;;5048318;28;20319;-84
2021/11/15 07:27:01;;;;;;;;;;;6.40;99.90;;;;;;5048236;28;19925;-83
2021/11/15 07:29:27;;;;;;;;;;;6.40;99.90;;;;;;5048676;28;19929;-83
2021/11/15 07:31:55;;;;;;;;;;;6.40;99.90;;;;;;5055163;28;19956;-83
2021/11/15 07:34:27;;;;;;;;;;;6.10;99.90;;;;;;5052929;28;19933;-83
2021/11/15 07:36:53;;;;;;;;;;;6.40;99.90;;;;;;5054362;28;19951;-83
2021/11/15 07:39:20;;;;;;;;;;;6.40;99.90;;;;;;5049026;28;19925;-83
2021/11/15 07:41:47;;;;;;;;;;;6.50;99.90;;;;;;5049942;28;20272;-83
2021/11/15 07:44:13;;;;;;;;;;;6.40;99.90;;;;;;5049730;28;19925;-84
2021/11/15 07:46:41;;;;;;;;;;;6.50;99.90;;;;;;5049046;28;19971;-83
2021/11/15 07:49:09;;;;;;;;;;;6.50;99.90;;;;;;5047278;28;19968;-84
2021/11/15 07:51:35;;;;;;;;;;;6.50;99.90;;;;;;5046048;28;19936;-83
2021/11/15 07:54:03;;;;;;;;;;;6.60;99.90;;;;;;5045545;28;19932;-83
2021/11/15 07:56:29;;;;;;;;;;;6.60;99.90;;;;;;5045164;28;19925;-84
2021/11/15 07:58:56;;;;;;;;;;;6.50;99.90;;;;;;5044984;28;19925;-83
2021/11/15 08:01:22;;;;;;;;;;;6.60;99.90;;;;;;5046400;28;20445;-85
2021/11/15 08:03:52;;;;;;;;;;;6.60;99.90;;;;;;5045131;28;19925;-83
2021/11/15 08:06:20;;;;;;;;;;;6.60;99.90;;;;;;5046129;28;19979;-82
2021/11/15 08:08:48;;;;;;;;;;;6.60;99.90;;;;;;5045026;28;19932;-85
2021/11/15 08:11:15;;;;;;;;;;;6.60;99.90;;;;;;5044131;28;19925;-84
2021/11/15 08:13:42;;;;;;;;;;;6.60;99.90;;;;;;5043030;28;19926;-83
2021/11/15 08:16:08;;;;;;;;;;;6.60;99.90;;;;;;5042450;28;19925;-84
2021/11/15 08:18:36;;;;;;;;;;;6.60;99.90;;;;;;5040785;28;19983;-84
2021/11/15 08:21:05;;;;;;;;;;;6.60;99.90;;;;;;5040938;28;20296;-84
2021/11/15 08:23:33;;;;;;;;;;;6.60;99.90;;;;;;5044430;28;20395;-83
2021/11/15 08:26:26;;;;;;;;;;;6.60;99.90;;;;;;5046918;28;19932;-84
2021/11/15 08:28:53;;;;;;;;;;;6.60;99.90;;;;;;5042249;28;19925;-84
2021/11/15 08:31:19;;;;;;;;;;;6.70;99.90;;;;;;5042769;28;19929;-84
2021/11/15 08:33:46;;;;;;;;;;;6.70;99.90;;;;;;5044329;28;19971;-85
2021/11/15 08:36:12;;;;;;;;;;;6.70;99.90;;;;;;5042280;28;19925;-83
2021/11/15 08:38:50;;;;;;;;;;;6.70;99.90;;;;;;5041977;28;19924;-84
2021/11/15 08:41:18;;;;;;;;;;;6.70;99.90;;;;;;5040145;28;20303;-84
2021/11/15 08:43:44;;;;;;;;;;;6.70;99.90;;;;;;5041567;28;19929;-85
2021/11/15 08:46:15;;;;;;;;;;;6.70;99.90;;;;;;5041105;28;20296;-84
2021/11/15 08:48:42;;;;;;;;;;;6.70;99.90;;;;;;5040096;28;20020;-84
2021/11/15 08:51:11;;;;;;;;;;;6.70;99.90;;;;;;5040544;28;19977;-84
2021/11/15 08:53:37;;;;;;;;;;;6.70;99.90;;;;;;5039710;28;19988;-83
2021/11/15 08:56:05;;;;;;;;;;;6.80;99.90;;;;;;5040299;28;19925;-84
2021/11/15 08:58:32;;;;;;;;;;;6.70;99.90;;;;;;5040696;28;19975;-83
2021/11/15 09:00:58;;;;;;;;;;;6.80;99.90;;;;;;5041284;28;20335;-83
2021/11/15 09:03:25;;;;;;;;;;;6.70;99.90;;;;;;5050048;28;19936;-83
2021/11/15 09:05:52;;;;;;;;;;;6.70;99.90;;;;;;5055622;28;19975;-84
2021/11/15 09:08:18;;;;;;;;;;;6.70;99.90;;;;;;5047519;28;19925;-83
2021/11/15 09:10:45;;;;;;;;;;;6.70;99.90;;;;;;5039781;28;19936;-85
2021/11/15 09:13:13;;;;;;;;;;;6.70;99.90;;;;;;5040337;28;20253;-84
2021/11/15 09:15:40;;;;;;;;;;;6.70;99.90;;;;;;5039586;28;19929;-84
2021/11/15 09:18:06;;;;;;;;;;;6.70;99.90;;;;;;5039698;28;19932;-84
2021/11/15 09:20:33;;;;;;;;;;;6.70;99.90;;;;;;5049222;28;19971;-83
2021/11/15 09:22:59;;;;;;;;;;;6.60;99.90;;;;;;5051468;28;19925;-83
2021/11/15 09:25:26;;;;;;;;;;;6.60;99.90;;;;;;5054122;28;19913;-84
2021/11/15 09:27:53;;;;;;;;;;;6.60;99.90;;;;;;5042150;28;19925;-84
2021/11/15 09:30:30;;;;;;;;;;;6.50;99.90;;;;;;5047048;28;19925;-85
2021/11/15 09:32:56;;;;;;;;;;;6.50;99.90;;;;;;5050760;28;19988;-84
2021/11/15 09:35:23;;;;;;;;;;;6.60;99.90;;;;;;5046936;28;19928;-83
2021/11/15 09:37:50;;;;;;;;;;;6.50;99.90;;;;;;5045624;28;19970;-84
2021/11/15 09:40:16;;;;;;;;;;;6.60;99.90;;;;;;5048175;28;19925;-84
2021/11/15 09:42:43;;;;;;;;;;;6.60;99.90;;;;;;5047703;28;19971;-84
2021/11/15 09:45:10;;;;;;;;;;;6.60;99.90;;;;;;5048523;28;19940;-84
2021/11/15 09:47:39;;;;;;;;;;;6.50;99.90;;;;;;5049557;28;19925;-84
2021/11/15 09:50:07;;;;;;;;;;;6.60;99.90;;;;;;5049556;28;19940;-84
2021/11/15 09:52:34;;;;;;;;;;;6.60;99.90;;;;;;5049839;28;19925;-84
2021/11/15 09:55:03;;;;;;;;;;;6.50;99.90;;;;;;5051818;28;19925;-84
2021/11/15 09:57:30;;;;;;;;;;;6.50;99.90;;;;;;5052620;28;19914;-83
2021/11/15 09:59:57;;;;;;;;;;;6.60;99.90;;;;;;5054690;28;20000;-84
2021/11/15 10:02:23;;;;;;;;;;;6.60;99.90;;;;;;5053852;28;19925;-84
2021/11/15 10:04:51;;;;;;;;;;;6.60;99.90;;;;;;5053165;28;19925;-82
2021/11/15 10:07:33;;;;;;;;;;;6.60;99.90;;;;;;5054803;28;19912;-82
2021/11/15 10:10:20;;;;;;;;;;;6.60;99.90;;;;;;5055363;28;19936;-82
2021/11/15 10:13:01;;;;;;;;;;;6.70;99.90;;;;;;5055321;28;19926;-83
2021/11/15 10:15:27;;;;;;;;;;;6.70;99.90;;;;;;5050118;28;19929;-83
2021/11/15 10:17:54;;;;;;;;;;;6.70;99.90;;;;;;5047669;28;19933;-83
2021/11/15 10:20:22;;;;;;;;;;;6.60;99.90;;;;;;5046666;28;19929;-84
2021/11/15 10:22:49;;;;;;;;;;;6.60;99.90;;;;;;5046312;28;20371;-84
2021/11/15 10:25:29;;;;;;;;;;;6.70;99.90;;;;;;5045541;28;19951;-84
2021/11/15 10:28:05;;;;;;;;;;;6.70;99.90;;;;;;5046246;28;19925;-84
2021/11/15 10:30:34;;;;;;;;;;;6.70;99.90;;;;;;5049274;28;19932;-84
2021/11/15 10:33:04;;;;;;;;;;;6.70;99.90;;;;;;5046619;28;19941;-84
2021/11/15 10:35:40;;;;;;;;;;;6.60;99.90;;;;;;5046960;28;19933;-84
2021/11/15 10:38:07;;;;;;;;;;;6.60;99.90;;;;;;5046008;28;20379;-83
2021/11/15 10:40:37;;;;;;;;;;;6.70;99.90;;;;;;5047483;28;19925;-84
2021/11/15 10:43:08;;;;;;;;;;;6.50;99.90;;;;;;5048747;28;19928;-83
2021/11/15 10:45:35;;;;;;;;;;;6.70;99.90;;;;;;5050155;28;19965;-83
2021/11/15 10:48:03;;;;;;;;;;;6.60;99.90;;;;;;5054779;28;19932;-84
2021/11/15 10:50:44;;;;;;;;;;;6.50;99.90;;;;;;5055707;28;19913;-83
2021/11/15 10:53:15;;;;;;;;;;;6.60;99.90;;;;;;5060019;28;19925;-82
2021/11/15 10:55:46;;;;;;;;;;;6.60;99.90;;;;;;5059311;28;19925;-84
2021/11/15 10:58:15;;;;;;;;;;;6.70;99.90;;;;;;5057334;28;19925;-84
2021/11/15 11:00:51;;;;;;;;;;;6.60;99.90;;;;;;5059243;28;19925;-83
2021/11/15 11:03:20;;;;;;;;;;;6.60;99.90;;;;;;5058784;28;19941;-84
2021/11/15 11:05:47;;;;;;;;;;;6.50;99.90;;;;;;5058450;28;20403;-84
2021/11/15 11:08:17;;;;;;;;;;;6.60;99.90;;;;;;5056113;28;19932;-83
2021/11/15 11:10:55;;;;;;;;;;;6.60;99.90;;;;;;5055823;28;19925;-83
2021/11/15 11:13:24;;;;;;;;;;;6.70;99.90;;;;;;5056606;28;19921;-83
2021/11/15 11:15:53;;;;;;;;;;;6.60;99.90;;;;;;5052738;28;19932;-84
2021/11/15 11:18:23;;;;;;;;;;;6.70;99.90;;;;;;5052143;28;20384;-84
2021/11/15 11:26:47;;;;;;;;;;;6.70;99.90;;;;;;5049331;28;19947;-83
2021/11/15 11:29:15;;;;;;;;;;;6.60;99.90;;;;;;5048834;28;19951;-83
2021/11/15 11:31:43;;;;;;;;;;;6.70;99.90;;;;;;5051391;28;20310;-83
2021/11/15 11:34:10;;;;;;;;;;;6.80;99.90;;;;;;5050308;28;19979;-85
2021/11/15 11:36:36;;;;;;;;;;;6.80;99.90;;;;;;5051842;28;19955;-83
2021/11/15 11:39:08;;;;;;;;;;;6.80;99.90;;;;;;5049501;28;19925;-84
2021/11/15 11:41:34;;;;;;;;;;;6.80;99.90;;;;;;5046473;28;19935;-83
2021/11/15 11:44:02;;;;;;;;;;;6.80;99.90;;;;;;5044275;28;19979;-86
2021/11/15 11:46:29;;;;;;;;;;;6.80;99.90;;;;;;5042336;28;20285;-84
2021/11/15 11:48:57;;;;;;;;;;;6.70;99.90;;;;;;5042884;28;20085;-84
2021/11/15 11:51:24;;;;;;;;;;;6.80;99.90;;;;;;5045634;28;19925;-83
2021/11/15 11:54:04;;;;;;;;;;;6.80;99.90;;;;;;5053891;28;19975;-83
2021/11/15 11:56:32;;;;;;;;;;;6.80;99.90;;;;;;5054793;28;19948;-83
2021/11/15 11:59:10;;;;;;;;;;;7.10;99.90;;;;;;5049627;28;19929;-85
2021/11/15 12:01:36;;;;;;;;;;;6.80;99.90;;;;;;5044519;28;19929;-84
2021/11/15 12:04:13;;;;;;;;;;;6.80;99.90;;;;;;5042132;28;19929;-84
2021/11/15 12:06:40;;;;;;;;;;;6.70;99.90;;;;;;5042266;28;19925;-84
2021/11/15 12:09:07;;;;;;;;;;;6.70;99.90;;;;;;5042648;28;19929;-83
2021/11/15 12:11:36;;;;;;;;;;;6.80;99.90;;;;;;5043361;28;19926;-84
2021/11/15 12:14:04;;;;;;;;;;;6.80;99.90;;;;;;5055602;28;19936;-84
2021/11/15 12:16:52;;;;;;;;;;;6.80;99.90;;;;;;5058869;28;19926;-83
2021/11/15 12:19:22;;;;;;;;;;;6.80;99.90;;;;;;5058905;28;19944;-82
2021/11/15 12:21:48;;;;;;;;;;;6.80;99.90;;;;;;5058866;28;19924;-85
2021/11/15 12:24:20;;;;;;;;;;;;;;;;;;5057919;28;19936;-81
2021/11/15 12:26:49;;;;;;;;;;;6.80;99.90;;;;;;5058460;28;19932;-84
2021/11/15 12:29:27;;;;;;;;;;;6.80;99.90;;;;;;5058587;28;19925;-83
2021/11/15 12:31:54;;;;;;;;;;;6.70;99.90;;;;;;5056649;28;19936;-84
2021/11/15 12:34:23;;;;;;;;;;;6.70;99.90;;;;;;5046446;28;20490;-85
2021/11/15 12:36:53;;;;;;;;;;;6.70;99.90;;;;;;5049383;28;19932;-85
2021/11/15 12:39:20;;;;;;;;;;;6.80;99.90;;;;;;5047730;28;19936;-84
2021/11/15 12:41:50;;;;;;;;;;;6.70;99.90;;;;;;5042541;28;19944;-84
2021/11/15 12:44:18;;;;;;;;;;;6.70;99.90;;;;;;5050589;28;19943;-82
2021/11/15 12:46:46;;;;;;;;;;;6.60;99.90;;;;;;5051383;28;19960;-83
2021/11/15 12:49:16;;;;;;;;;;;6.00;99.90;;;;;;5051947;28;19925;-82
2021/11/15 12:51:48;;;;;;;;;;;6.60;99.90;;;;;;5043297;28;19925;-85
2021/11/15 12:54:14;;;;;;;;;;;6.60;99.90;;;;;;5041707;28;19975;-84
2021/11/15 12:56:41;;;;;;;;;;;6.60;99.90;;;;;;5044765;28;19951;-85
2021/11/15 12:59:10;;;;;;;;;;;6.60;99.90;;;;;;5041620;28;19925;-83
2021/11/15 13:01:37;;;;;;;;;;;6.60;99.90;;;;;;5046596;28;20384;-84
2021/11/15 13:04:03;;;;;;;;;;;6.70;99.90;;;;;;5049213;28;20024;-84
2021/11/15 13:06:30;;;;;;;;;;;6.60;99.90;;;;;;5045950;28;19925;-84
2021/11/15 13:08:57;;;;;;;;;;;;;;;;;;5043116;28;19929;-84
2021/11/15 13:11:23;;;;;;;;;;;6.60;99.90;;;;;;5041691;28;19936;-84
2021/11/15 13:13:50;;;;;;;;;;;6.00;99.90;;;;;;5047506;28;19926;-84
2021/11/15 13:16:19;;;;;;;;;;;6.60;99.90;;;;;;5047324;28;20364;-84
2021/11/15 13:18:45;;;;;;;;;;;6.50;99.90;;;;;;5038284;28;19925;-84
2021/11/15 13:21:13;;;;;;;;;;;6.60;99.90;;;;;;5036797;28;19964;-84
2021/11/15 13:23:40;;;;;;;;;;;6.60;99.90;;;;;;5037481;28;19979;-83
2021/11/15 13:26:07;;;;;;;;;;;6.50;99.90;;;;;;5039864;28;20344;-83
2021/11/15 13:28:34;;;;;;;;;;;6.60;99.90;;;;;;5041870;28;19929;-84
2021/11/15 13:31:01;;;;;;;;;;;6.60;99.90;;;;;;5042061;28;19925;-83
2021/11/15 13:33:29;;;;;;;;;;;6.60;99.90;;;;;;5048881;28;19933;-84
2021/11/15 13:35:56;;;;;;;;;;;6.60;99.90;;;;;;5049530;28;20264;-83
2021/11/15 13:38:22;;;;;;;;;;;6.70;99.90;;;;;;5047857;28;19967;-85
2021/11/15 13:40:49;;;;;;;;;;;6.60;99.90;;;;;;5047146;28;20012;-85
2021/11/15 13:43:17;;;;;;;;;;;6.60;99.90;;;;;;5043250;28;19925;-85
2021/11/15 13:45:44;;;;;;;;;;;6.20;99.90;;;;;;5042525;28;19926;-85
2021/11/15 13:48:10;;;;;;;;;;;6.60;99.90;;;;;;5042206;28;20349;-85
2021/11/15 13:50:38;;;;;;;;;;;6.60;99.90;;;;;;5042404;28;20338;-84
2021/11/15 13:53:09;;;;;;;;;;;6.70;99.90;;;;;;5041915;28;19925;-86
2021/11/15 13:55:36;;;;;;;;;;;6.60;99.90;;;;;;5041979;28;20295;-85
2021/11/15 13:58:02;;;;;;;;;;;6.60;99.90;;;;;;5044777;28;20331;-85
2021/11/15 14:00:30;;;;;;;;;;;6.60;99.90;;;;;;5044938;28;19925;-85
2021/11/15 14:02:56;;;;;;;;;;;6.60;99.90;;;;;;5042723;28;19925;-85
2021/11/15 14:05:23;;;;;;;;;;;6.60;99.90;;;;;;5042608;28;20345;-85
2021/11/15 14:07:51;;;;;;;;;;;6.50;99.90;;;;;;5043178;28;20346;-84
2021/11/15 14:10:18;;;;;;;;;;;6.60;99.90;;;;;;5043404;28;19929;-85
2021/11/15 14:12:44;;;;;;;;;;;6.60;99.90;;;;;;5041596;28;19929;-84
2021/11/15 14:15:11;;;;;;;;;;;6.60;99.90;;;;;;5044603;28;19925;-85
2021/11/15 14:17:38;;;;;;;;;;;6.60;99.90;;;;;;5045501;28;19925;-85
2021/11/15 14:20:05;;;;;;;;;;;6.60;99.90;;;;;;5044281;28;19925;-84
2021/11/15 14:22:32;;;;;;;;;;;6.60;99.90;;;;;;5050245;28;19948;-83
2021/11/15 14:25:00;;;;;;;;;;;6.50;99.90;;;;;;5056008;28;19913;-82
2021/11/15 14:27:26;;;;;;;;;;;6.50;99.90;;;;;;5054637;28;19975;-84
2021/11/15 14:29:53;;;;;;;;;;;6.60;99.90;;;;;;5052991;28;19925;-84
2021/11/15 14:32:20;;;;;;;;;;;6.50;99.90;;;;;;5048413;28;19932;-85
2021/11/15 14:34:46;;;;;;;;;;;6.50;99.90;;;;;;5046705;28;19932;-84
2021/11/15 14:37:14;;;;;;;;;;;6.60;99.90;;;;;;5046521;28;19932;-82
2021/11/15 14:39:41;;;;;;;;;;;6.60;99.90;;;;;;5047790;28;19976;-85